createdAt,value
2016-08-02T00:00:16.816Z,956.78
2016-08-02T00:01:16.843Z,956.74
2016-08-02T00:02:16.868Z,956.72
2016-08-02T00:03:16.896Z,956.75
2016-08-02T00:04:16.921Z,956.72
2016-08-02T00:05:16.949Z,956.72
2016-08-02T00:06:16.975Z,956.72
2016-08-02T00:07:17.003Z,956.65
2016-08-02T00:08:17.027Z,956.71
2016-08-02T00:09:17.054Z,956.68
2016-08-02T00:10:17.082Z,956.77
2016-08-02T00:11:17.109Z,956.74
2016-08-02T00:12:17.134Z,956.74
2016-08-02T00:13:17.160Z,956.78
2016-08-02T00:14:17.194Z,956.81
2016-08-02T00:15:17.212Z,956.8
2016-08-02T00:16:17.240Z,956.84
2016-08-02T00:17:17.274Z,956.89
2016-08-02T00:18:17.293Z,956.79
2016-08-02T00:19:17.319Z,956.88
2016-08-02T00:20:17.346Z,956.89
2016-08-02T00:21:17.373Z,956.86
2016-08-02T00:22:17.410Z,956.89
2016-08-02T00:23:17.424Z,956.87
2016-08-02T00:24:17.449Z,956.83
2016-08-02T00:25:17.476Z,956.85
2016-08-02T00:26:17.503Z,956.88
2016-08-02T00:27:17.528Z,956.83
2016-08-02T00:28:17.555Z,956.83
2016-08-02T00:29:17.584Z,956.8
2016-08-02T00:30:17.630Z,956.78
2016-08-02T00:31:17.634Z,956.85
2016-08-02T00:32:17.661Z,956.76
2016-08-02T00:33:17.687Z,956.76
2016-08-02T00:34:17.715Z,956.76
2016-08-02T00:35:17.741Z,956.82
2016-08-02T00:36:17.766Z,956.86
2016-08-02T00:37:17.813Z,956.87
2016-08-02T00:38:17.818Z,956.77
2016-08-02T00:39:17.845Z,956.79
2016-08-02T00:40:17.888Z,956.74
2016-08-02T00:41:17.903Z,956.79
2016-08-02T00:42:17.923Z,956.78
2016-08-02T00:43:17.951Z,956.78
2016-08-02T00:44:17.977Z,956.76
2016-08-02T00:45:18.005Z,956.81
2016-08-02T00:46:18.031Z,956.77
2016-08-02T00:47:18.056Z,956.8
2016-08-02T00:48:18.092Z,956.82
2016-08-02T00:49:18.108Z,956.81
2016-08-02T00:50:18.135Z,956.77
2016-08-02T00:51:18.161Z,956.79
2016-08-02T00:52:18.186Z,956.78
2016-08-02T00:53:18.214Z,956.75
2016-08-02T00:54:18.239Z,956.74
2016-08-02T00:55:18.268Z,956.75
2016-08-02T00:56:18.292Z,956.72
2016-08-02T00:57:18.317Z,956.73
2016-08-02T00:58:18.345Z,956.7
2016-08-02T00:59:18.369Z,956.73
2016-08-02T01:00:18.396Z,956.7
2016-08-02T01:01:18.422Z,956.7
2016-08-02T01:02:18.449Z,956.66
2016-08-02T01:03:18.474Z,956.67
2016-08-02T01:04:18.500Z,956.64
2016-08-02T01:05:18.528Z,956.68
2016-08-02T01:06:18.553Z,956.66
2016-08-02T01:07:18.579Z,956.66
2016-08-02T01:08:18.606Z,956.65
2016-08-02T01:09:18.632Z,956.65
2016-08-02T01:10:18.659Z,956.68
2016-08-02T01:11:18.683Z,956.66
2016-08-02T01:12:18.711Z,956.65
2016-08-02T01:13:18.737Z,956.62
2016-08-02T01:14:18.763Z,956.62
2016-08-02T01:15:18.789Z,956.59
2016-08-02T01:16:18.815Z,956.55
2016-08-02T01:17:18.852Z,956.56
2016-08-02T01:18:18.866Z,956.51
2016-08-02T01:19:18.893Z,956.51
2016-08-02T01:20:18.920Z,956.51
2016-08-02T01:21:18.945Z,956.45
2016-08-02T01:22:18.971Z,956.49
2016-08-02T01:23:18.997Z,956.39
2016-08-02T01:24:19.025Z,956.38
2016-08-02T01:25:19.054Z,956.38
2016-08-02T01:26:19.076Z,956.41
2016-08-02T01:27:19.101Z,956.43
2016-08-02T01:28:19.130Z,956.4
2016-08-02T01:29:19.154Z,956.39
2016-08-02T01:30:19.364Z,956.39
2016-08-02T01:31:19.206Z,956.37
2016-08-02T01:32:19.232Z,956.39
2016-08-02T01:33:19.424Z,956.37
2016-08-02T01:34:19.285Z,956.4
2016-08-02T01:35:19.310Z,956.42
2016-08-02T01:36:19.336Z,956.38
2016-08-02T01:37:19.362Z,956.44
2016-08-02T01:38:19.388Z,956.37
2016-08-02T01:39:19.414Z,956.39
2016-08-02T01:40:19.439Z,956.42
2016-08-02T01:41:19.490Z,956.34
2016-08-02T01:42:19.492Z,956.36
2016-08-02T01:43:19.519Z,956.35
2016-08-02T01:44:19.545Z,956.34
2016-08-02T01:45:19.573Z,956.31
2016-08-02T01:46:19.596Z,956.33
2016-08-02T01:47:19.628Z,956.31
2016-08-02T01:48:19.649Z,956.35
2016-08-02T01:49:19.675Z,956.36
2016-08-02T01:50:19.699Z,956.36
2016-08-02T01:51:19.726Z,956.39
2016-08-02T01:52:19.753Z,956.44
2016-08-02T01:53:19.779Z,956.41
2016-08-02T01:54:19.803Z,956.39
2016-08-02T01:55:19.830Z,956.39
2016-08-02T01:56:19.861Z,956.4
2016-08-02T01:57:19.887Z,956.38
2016-08-02T01:58:19.910Z,956.42
2016-08-02T01:59:19.935Z,956.38
2016-08-02T02:00:19.961Z,956.37
2016-08-02T02:01:19.987Z,956.33
2016-08-02T02:02:20.015Z,956.3
2016-08-02T02:03:20.040Z,956.29
2016-08-02T02:04:20.068Z,956.23
2016-08-02T02:05:20.097Z,956.2
2016-08-02T02:06:20.119Z,956.23
2016-08-02T02:07:20.144Z,956.21
2016-08-02T02:08:20.172Z,956.23
2016-08-02T02:09:20.196Z,956.22
2016-08-02T02:10:20.223Z,956.15
2016-08-02T02:11:20.247Z,956.15
2016-08-02T02:12:20.274Z,956.14
2016-08-02T02:13:20.300Z,956.11
2016-08-02T02:14:20.326Z,956.15
2016-08-02T02:15:20.351Z,956.15
2016-08-02T02:16:20.377Z,956.15
2016-08-02T02:17:20.404Z,956.18
2016-08-02T02:18:20.430Z,956.16
2016-08-02T02:19:20.457Z,956.15
2016-08-02T02:20:20.482Z,956.18
2016-08-02T02:21:20.511Z,956.17
2016-08-02T02:22:20.539Z,956.16
2016-08-02T02:23:20.559Z,956.13
2016-08-02T02:24:20.585Z,956.15
2016-08-02T02:25:20.612Z,956.12
2016-08-02T02:26:20.637Z,956.09
2016-08-02T02:27:20.664Z,956.07
2016-08-02T02:28:20.689Z,956.06
2016-08-02T02:29:20.728Z,955.99
2016-08-02T02:30:20.740Z,956.04
2016-08-02T02:31:20.766Z,955.96
2016-08-02T02:32:20.792Z,955.99
2016-08-02T02:33:20.819Z,955.95
2016-08-02T02:34:20.844Z,955.98
2016-08-02T02:35:20.869Z,955.95
2016-08-02T02:36:20.896Z,955.97
2016-08-02T02:37:20.946Z,955.95
2016-08-02T02:38:20.948Z,955.96
2016-08-02T02:39:20.974Z,956.03
2016-08-02T02:40:20.999Z,956
2016-08-02T02:41:21.025Z,956.06
2016-08-02T02:42:21.052Z,956
2016-08-02T02:43:21.611Z,956.03
2016-08-02T02:44:21.158Z,956.06
2016-08-02T02:45:21.167Z,956.06
2016-08-02T02:46:21.155Z,956.06
2016-08-02T02:47:21.185Z,956.09
2016-08-02T02:48:21.213Z,956.08
2016-08-02T02:49:21.232Z,956.06
2016-08-02T02:50:21.259Z,956.13
2016-08-02T02:51:21.284Z,956.06
2016-08-02T02:52:21.307Z,956.08
2016-08-02T02:53:21.336Z,956.08
2016-08-02T02:54:21.362Z,956.06
2016-08-02T02:55:21.387Z,956.09
2016-08-02T02:56:21.412Z,956.11
2016-08-02T02:57:21.437Z,956.07
2016-08-02T02:58:21.463Z,956.06
2016-08-02T02:59:21.651Z,956.08
2016-08-02T03:00:21.567Z,956.09
2016-08-02T03:01:21.970Z,956.11
2016-08-02T03:02:21.566Z,956.07
2016-08-02T03:03:21.591Z,956.09
2016-08-02T03:04:21.617Z,956.06
2016-08-02T03:05:21.643Z,956.08
2016-08-02T03:06:21.668Z,956.07
2016-08-02T03:07:21.693Z,956.07
2016-08-02T03:08:21.721Z,956.09
2016-08-02T03:09:21.745Z,956.14
2016-08-02T03:10:21.783Z,956.14
2016-08-02T03:11:21.796Z,956.17
2016-08-02T03:12:21.822Z,956.11
2016-08-02T03:13:21.848Z,956.15
2016-08-02T03:14:21.873Z,956.15
2016-08-02T03:15:21.898Z,956.16
2016-08-02T03:16:21.937Z,956.14
2016-08-02T03:17:21.948Z,956.15
2016-08-02T03:18:21.973Z,956.19
2016-08-02T03:19:22.000Z,956.16
2016-08-02T03:20:22.025Z,956.18
2016-08-02T03:21:22.051Z,956.16
2016-08-02T03:22:22.075Z,956.16
2016-08-02T03:23:22.105Z,956.17
2016-08-02T03:25:22.152Z,956.17
2016-08-02T03:26:22.178Z,956.19
2016-08-02T03:27:22.204Z,956.19
2016-08-02T03:28:22.278Z,956.2
2016-08-02T03:29:22.253Z,956.16
2016-08-02T03:30:22.374Z,956.2
2016-08-02T03:31:22.315Z,956.19
2016-08-02T03:32:22.330Z,956.18
2016-08-02T03:33:22.355Z,956.16
2016-08-02T03:34:22.382Z,956.13
2016-08-02T03:35:22.407Z,956.1
2016-08-02T03:36:22.434Z,956.14
2016-08-02T03:37:22.456Z,956.12
2016-08-02T03:38:22.482Z,956.07
2016-08-02T03:39:22.508Z,956.12
2016-08-02T03:40:22.532Z,956.12
2016-08-02T03:41:22.557Z,956.1
2016-08-02T03:42:22.583Z,956.1
2016-08-02T03:43:22.607Z,956.14
2016-08-02T03:44:22.632Z,956.1
2016-08-02T03:45:22.658Z,956.08
2016-08-02T03:46:22.684Z,956.08
2016-08-02T03:47:22.707Z,956.12
2016-08-02T03:48:22.745Z,956.09
2016-08-02T03:49:22.764Z,956.06
2016-08-02T03:50:22.785Z,956.08
2016-08-02T03:51:22.810Z,956.08
2016-08-02T03:52:22.834Z,956.06
2016-08-02T03:54:22.886Z,956.05
2016-08-02T03:55:22.912Z,956.11
2016-08-02T03:56:22.938Z,956.06
2016-08-02T03:57:22.964Z,956.06
2016-08-02T03:58:22.988Z,956.05
2016-08-02T03:59:23.014Z,956.08
2016-08-02T04:00:23.038Z,956.09
2016-08-02T04:01:23.064Z,956.09
2016-08-02T04:02:23.090Z,956.11
2016-08-02T04:03:23.115Z,956.1
2016-08-02T04:04:23.140Z,956.07
2016-08-02T04:05:23.163Z,956.1
2016-08-02T04:06:23.190Z,956.1
2016-08-02T04:07:23.216Z,956.11
2016-08-02T04:08:23.242Z,956.11
2016-08-02T04:09:23.763Z,956.09
2016-08-02T04:10:23.323Z,956.11
2016-08-02T04:11:23.337Z,956.18
2016-08-02T04:12:23.349Z,956.13
2016-08-02T04:13:23.379Z,956.15
2016-08-02T04:14:23.400Z,956.13
2016-08-02T04:15:23.428Z,956.11
2016-08-02T04:16:23.451Z,956.09
2016-08-02T04:17:23.470Z,956.1
2016-08-02T04:18:23.497Z,956.12
2016-08-02T04:19:23.524Z,956.12
2016-08-02T04:20:23.547Z,956.1
2016-08-02T04:21:23.573Z,956.15
2016-08-02T04:22:23.598Z,956.07
2016-08-02T04:23:23.623Z,956.11
2016-08-02T04:25:23.674Z,956.07
2016-08-02T04:26:23.700Z,956.12
2016-08-02T04:27:23.737Z,956.11
2016-08-02T04:28:23.749Z,956.08
2016-08-02T04:29:23.776Z,956.1
2016-08-02T04:30:23.802Z,956.07
2016-08-02T04:31:24.012Z,956.06
2016-08-02T04:32:23.853Z,956.03
2016-08-02T04:33:23.879Z,956.03
2016-08-02T04:34:23.903Z,956.06
2016-08-02T04:35:23.928Z,956.02
2016-08-02T04:36:23.953Z,956.06
2016-08-02T04:37:23.980Z,956.06
2016-08-02T04:38:24.006Z,956.05
2016-08-02T04:40:24.057Z,956.03
2016-08-02T04:41:24.081Z,956.04
2016-08-02T04:42:24.108Z,956.04
2016-08-02T04:43:24.133Z,956.02
2016-08-02T04:44:24.158Z,956.06
2016-08-02T04:45:24.183Z,956.06
2016-08-02T04:46:24.208Z,956.08
2016-08-02T04:47:24.235Z,956.06
2016-08-02T04:48:24.260Z,956.12
2016-08-02T04:49:24.286Z,956.11
2016-08-02T04:50:24.311Z,956.08
2016-08-02T04:51:24.342Z,956.13
2016-08-02T04:52:24.363Z,956.17
2016-08-02T04:53:24.387Z,956.12
2016-08-02T04:55:24.439Z,956.12
2016-08-02T04:56:24.465Z,956.15
2016-08-02T04:57:24.489Z,956.11
2016-08-02T04:58:24.515Z,956.1
2016-08-02T04:59:24.545Z,956.1
2016-08-02T05:00:24.567Z,956.13
2016-08-02T05:01:24.593Z,956.13
2016-08-02T05:02:24.618Z,956.2
2016-08-02T05:03:24.643Z,956.26
2016-08-02T05:04:24.668Z,956.19
2016-08-02T05:05:24.694Z,956.24
2016-08-02T05:06:24.719Z,956.26
2016-08-02T05:07:24.762Z,956.18
2016-08-02T05:08:24.770Z,956.24
2016-08-02T05:10:24.827Z,956.26
2016-08-02T05:11:24.848Z,956.27
2016-08-02T05:12:24.873Z,956.25
2016-08-02T05:13:24.900Z,956.24
2016-08-02T05:14:24.924Z,956.25
2016-08-02T05:15:24.950Z,956.24
2016-08-02T05:16:24.982Z,956.24
2016-08-02T05:17:25.001Z,956.31
2016-08-02T05:18:25.027Z,956.27
2016-08-02T05:19:25.052Z,956.28
2016-08-02T05:20:25.076Z,956.29
2016-08-02T05:21:25.102Z,956.25
2016-08-02T05:22:25.129Z,956.25
2016-08-02T05:23:25.154Z,956.27
2016-08-02T05:25:25.205Z,956.24
2016-08-02T05:26:25.231Z,956.23
2016-08-02T05:27:25.256Z,956.29
2016-08-02T05:28:25.282Z,956.3
2016-08-02T05:29:25.309Z,956.27
2016-08-02T05:30:25.335Z,956.25
2016-08-02T05:31:25.360Z,956.24
2016-08-02T05:32:25.387Z,956.27
2016-08-02T05:33:25.416Z,956.33
2016-08-02T05:34:25.440Z,956.27
2016-08-02T05:35:25.463Z,956.3
2016-08-02T05:36:25.489Z,956.33
2016-08-02T05:37:25.515Z,956.3
2016-08-02T05:38:25.550Z,956.26
2016-08-02T05:40:25.592Z,956.33
2016-08-02T05:41:25.617Z,956.32
2016-08-02T05:42:25.644Z,956.3
2016-08-02T05:43:25.671Z,956.33
2016-08-02T05:44:25.694Z,956.31
2016-08-02T05:45:25.721Z,956.38
2016-08-02T05:46:25.753Z,956.31
2016-08-02T05:47:25.774Z,956.34
2016-08-02T05:48:25.798Z,956.31
2016-08-02T05:49:25.824Z,956.27
2016-08-02T05:50:25.852Z,956.31
2016-08-02T05:51:25.877Z,956.32
2016-08-02T05:52:25.903Z,956.32
2016-08-02T05:53:25.927Z,956.28
2016-08-02T05:55:25.979Z,956.24
2016-08-02T05:56:26.007Z,956.26
2016-08-02T05:57:26.032Z,956.18
2016-08-02T05:58:26.059Z,956.2
2016-08-02T05:59:26.083Z,956.26
2016-08-02T06:00:26.160Z,956.24
2016-08-02T06:01:26.136Z,956.28
2016-08-02T06:02:26.162Z,956.25
2016-08-02T06:03:26.188Z,956.28
2016-08-02T06:04:26.213Z,956.27
2016-08-02T06:05:26.242Z,956.21
2016-08-02T06:06:26.265Z,956.23
2016-08-02T06:07:26.292Z,956.24
2016-08-02T06:08:26.319Z,956.24
2016-08-02T06:10:26.371Z,956.25
2016-08-02T06:11:26.397Z,956.25
2016-08-02T06:12:26.427Z,956.28
2016-08-02T06:13:26.448Z,956.26
2016-08-02T06:14:26.479Z,956.27
2016-08-02T06:15:26.502Z,956.23
2016-08-02T06:16:26.529Z,956.24
2016-08-02T06:17:26.555Z,956.23
2016-08-02T06:18:26.589Z,956.29
2016-08-02T06:19:26.607Z,956.21
2016-08-02T06:20:26.633Z,956.26
2016-08-02T06:21:26.660Z,956.24
2016-08-02T06:22:26.685Z,956.26
2016-08-02T06:23:26.713Z,956.33
2016-08-02T06:25:26.765Z,956.32
2016-08-02T06:26:26.791Z,956.33
2016-08-02T06:27:26.819Z,956.33
2016-08-02T06:28:26.843Z,956.32
2016-08-02T06:29:26.871Z,956.36
2016-08-02T06:30:26.898Z,956.38
2016-08-02T06:31:26.937Z,956.38
2016-08-02T06:32:26.950Z,956.37
2016-08-02T06:33:26.978Z,956.38
2016-08-02T06:34:27.010Z,956.42
2016-08-02T06:35:27.030Z,956.42
2016-08-02T06:36:27.057Z,956.45
2016-08-02T06:37:27.082Z,956.43
2016-08-02T06:38:27.111Z,956.42
2016-08-02T06:39:27.137Z,956.39
2016-08-02T06:40:27.163Z,956.41
2016-08-02T06:41:27.191Z,956.42
2016-08-02T06:42:27.217Z,956.42
2016-08-02T06:43:27.243Z,956.45
2016-08-02T06:44:27.270Z,956.43
2016-08-02T06:45:27.296Z,956.44
2016-08-02T06:46:27.325Z,956.45
2016-08-02T06:47:27.351Z,956.46
2016-08-02T06:48:27.376Z,956.46
2016-08-02T06:49:27.406Z,956.44
2016-08-02T06:50:27.431Z,956.46
2016-08-02T06:51:27.458Z,956.51
2016-08-02T06:52:27.486Z,956.49
2016-08-02T06:53:27.513Z,956.44
2016-08-02T06:54:27.537Z,956.47
2016-08-02T06:55:27.565Z,956.45
2016-08-02T06:56:27.592Z,956.44
2016-08-02T06:57:27.619Z,956.42
2016-08-02T06:58:27.651Z,956.44
2016-08-02T06:59:27.672Z,956.4
2016-08-02T07:00:27.750Z,956.41
2016-08-02T07:01:27.724Z,956.4
2016-08-02T07:02:27.752Z,956.38
2016-08-02T07:03:27.781Z,956.42
2016-08-02T07:04:27.822Z,956.38
2016-08-02T07:05:27.834Z,956.35
2016-08-02T07:06:27.867Z,956.35
2016-08-02T07:07:27.889Z,956.41
2016-08-02T07:08:27.917Z,956.36
2016-08-02T07:09:27.941Z,956.37
2016-08-02T07:10:27.970Z,956.4
2016-08-02T07:11:27.996Z,956.41
2016-08-02T07:12:28.022Z,956.4
2016-08-02T07:13:28.050Z,956.4
2016-08-02T07:14:28.086Z,956.39
2016-08-02T07:15:28.108Z,956.39
2016-08-02T07:16:28.131Z,956.43
2016-08-02T07:17:28.159Z,956.41
2016-08-02T07:18:28.186Z,956.38
2016-08-02T07:19:28.211Z,956.39
2016-08-02T07:20:28.240Z,956.39
2016-08-02T07:21:28.266Z,956.43
2016-08-02T07:22:28.297Z,956.41
2016-08-02T07:23:28.322Z,956.43
2016-08-02T07:24:28.350Z,956.4
2016-08-02T07:25:28.376Z,956.39
2016-08-02T07:26:28.402Z,956.41
2016-08-02T07:27:28.435Z,956.43
2016-08-02T07:28:28.459Z,956.45
2016-08-02T07:29:28.486Z,956.39
2016-08-02T07:30:28.514Z,956.38
2016-08-02T07:31:28.539Z,956.37
2016-08-02T07:32:28.568Z,956.32
2016-08-02T07:33:28.594Z,956.35
2016-08-02T07:34:28.620Z,956.32
2016-08-02T07:35:28.649Z,956.27
2016-08-02T07:36:28.676Z,956.33
2016-08-02T07:37:28.713Z,956.3
2016-08-02T07:38:28.735Z,956.29
2016-08-02T07:39:28.761Z,956.27
2016-08-02T07:40:28.787Z,956.26
2016-08-02T07:41:28.814Z,956.25
2016-08-02T07:42:28.840Z,956.27
2016-08-02T07:43:28.868Z,956.24
2016-08-02T07:44:28.895Z,956.26
2016-08-02T07:45:28.922Z,956.26
2016-08-02T07:46:28.951Z,956.28
2016-08-02T07:47:28.982Z,956.26
2016-08-02T07:48:29.006Z,956.25
2016-08-02T07:49:29.034Z,956.27
2016-08-02T07:50:29.063Z,956.31
2016-08-02T07:51:29.091Z,956.27
2016-08-02T07:52:29.117Z,956.26
2016-08-02T07:53:29.147Z,956.24
2016-08-02T07:54:29.185Z,956.28
2016-08-02T07:55:29.203Z,956.26
2016-08-02T07:56:29.238Z,956.24
2016-08-02T07:57:29.261Z,956.26
2016-08-02T07:58:29.294Z,956.29
2016-08-02T07:59:29.316Z,956.29
2016-08-02T08:00:29.393Z,956.3
2016-08-02T08:01:29.371Z,956.31
2016-08-02T08:02:29.401Z,956.26
2016-08-02T08:03:29.432Z,956.22
2016-08-02T08:04:29.456Z,956.26
2016-08-02T08:05:29.496Z,956.24
2016-08-02T08:06:29.514Z,956.25
2016-08-02T08:07:29.542Z,956.25
2016-08-02T08:08:29.578Z,956.25
2016-08-02T08:09:29.599Z,956.24
2016-08-02T08:10:29.628Z,956.22
2016-08-02T08:11:29.659Z,956.19
2016-08-02T08:12:29.686Z,956.22
2016-08-02T08:13:29.718Z,956.22
2016-08-02T08:14:29.740Z,956.22
2016-08-02T08:15:29.775Z,956.21
2016-08-02T08:16:29.799Z,956.22
2016-08-02T08:17:29.828Z,956.23
2016-08-02T08:18:29.876Z,956.25
2016-08-02T08:19:29.885Z,956.27
2016-08-02T08:20:29.913Z,956.21
2016-08-02T08:21:29.941Z,956.26
2016-08-02T08:22:29.969Z,956.25
2016-08-02T08:23:29.999Z,956.26
2016-08-02T08:24:30.029Z,956.21
2016-08-02T08:25:30.058Z,956.19
2016-08-02T08:26:30.092Z,956.23
2016-08-02T08:27:30.116Z,956.22
2016-08-02T08:28:30.144Z,956.21
2016-08-02T08:29:30.172Z,956.23
2016-08-02T08:30:30.201Z,956.23
2016-08-02T08:31:30.231Z,956.27
2016-08-02T08:32:30.258Z,956.28
2016-08-02T08:33:30.288Z,956.27
2016-08-02T08:34:30.322Z,956.34
2016-08-02T08:35:30.348Z,956.33
2016-08-02T08:36:30.374Z,956.3
2016-08-02T08:37:30.404Z,956.33
2016-08-02T08:38:30.434Z,956.34
2016-08-02T08:39:30.464Z,956.28
2016-08-02T08:40:30.492Z,956.31
2016-08-02T08:41:30.523Z,956.27
2016-08-02T08:42:30.552Z,956.3
2016-08-02T08:43:30.581Z,956.26
2016-08-02T08:44:30.610Z,956.28
2016-08-02T08:45:30.640Z,956.19
2016-08-02T08:46:30.667Z,956.16
2016-08-02T08:47:30.698Z,956.15
2016-08-02T08:48:30.725Z,956.17
2016-08-02T08:49:30.755Z,956.23
2016-08-02T08:50:30.784Z,956.18
2016-08-02T08:51:30.835Z,956.21
2016-08-02T08:52:30.845Z,956.16
2016-08-02T08:53:30.873Z,956.19
2016-08-02T08:54:30.903Z,956.17
2016-08-02T08:55:30.932Z,956.22
2016-08-02T08:56:30.961Z,956.19
2016-08-02T08:57:30.991Z,956.25
2016-08-02T08:58:31.020Z,956.26
2016-08-02T08:59:31.052Z,956.2
2016-08-02T09:00:31.078Z,956.26
2016-08-02T09:01:31.108Z,956.27
2016-08-02T09:02:31.137Z,956.24
2016-08-02T09:03:31.166Z,956.28
2016-08-02T09:04:31.196Z,956.27
2016-08-02T09:05:31.226Z,956.23
2016-08-02T09:06:31.257Z,956.24
2016-08-02T09:07:31.286Z,956.3
2016-08-02T09:08:31.316Z,956.27
2016-08-02T09:09:31.345Z,956.23
2016-08-02T09:10:31.373Z,956.26
2016-08-02T09:11:31.404Z,956.24
2016-08-02T09:12:31.433Z,956.24
2016-08-02T09:13:31.462Z,956.25
2016-08-02T09:14:31.493Z,956.24
2016-08-02T09:15:31.521Z,956.24
2016-08-02T09:16:31.551Z,956.24
2016-08-02T09:17:31.579Z,956.24
2016-08-02T09:18:31.611Z,956.25
2016-08-02T09:19:31.639Z,956.24
2016-08-02T09:20:31.667Z,956.32
2016-08-02T09:21:31.697Z,956.3
2016-08-02T09:22:31.730Z,956.3
2016-08-02T09:23:31.762Z,956.29
2016-08-02T09:24:31.788Z,956.25
2016-08-02T09:25:31.816Z,956.3
2016-08-02T09:26:31.845Z,956.25
2016-08-02T09:27:31.875Z,956.23
2016-08-02T09:28:31.905Z,956.28
2016-08-02T09:29:31.934Z,956.27
2016-08-02T09:30:31.979Z,956.26
2016-08-02T09:31:31.993Z,956.26
2016-08-02T09:32:32.024Z,956.28
2016-08-02T09:33:32.056Z,956.28
2016-08-02T09:34:32.081Z,956.28
2016-08-02T09:35:32.111Z,956.25
2016-08-02T09:36:32.180Z,956.26
2016-08-02T09:37:32.178Z,956.23
2016-08-02T09:38:32.201Z,956.25
2016-08-02T09:39:32.230Z,956.31
2016-08-02T09:40:32.264Z,956.31
2016-08-02T09:41:32.295Z,956.29
2016-08-02T09:42:32.321Z,956.27
2016-08-02T09:43:32.350Z,956.32
2016-08-02T09:44:32.380Z,956.27
2016-08-02T09:45:32.408Z,956.28
2016-08-02T09:46:32.437Z,956.27
2016-08-02T09:47:32.486Z,956.3
2016-08-02T09:48:32.505Z,956.27
2016-08-02T09:49:32.528Z,956.23
2016-08-02T09:50:32.555Z,956.2
2016-08-02T09:51:32.585Z,956.21
2016-08-02T09:52:32.616Z,956.19
2016-08-02T09:53:32.646Z,956.17
2016-08-02T09:54:32.674Z,956.18
2016-08-02T09:55:32.706Z,956.18
2016-08-02T09:56:32.738Z,956.19
2016-08-02T09:57:32.764Z,956.19
2016-08-02T09:58:32.794Z,956.24
2016-08-02T09:59:32.825Z,956.2
2016-08-02T10:00:32.852Z,956.18
2016-08-02T10:01:32.883Z,956.16
2016-08-02T10:02:32.915Z,956.17
2016-08-02T10:03:32.943Z,956.15
2016-08-02T10:04:32.971Z,956.13
2016-08-02T10:05:33.002Z,956.11
2016-08-02T10:06:33.030Z,956.12
2016-08-02T10:07:33.061Z,956.2
2016-08-02T10:08:33.092Z,956.17
2016-08-02T10:09:33.121Z,956.2
2016-08-02T10:10:33.151Z,956.16
2016-08-02T10:11:33.180Z,956.15
2016-08-02T10:12:33.215Z,956.1
2016-08-02T10:13:33.239Z,956.07
2016-08-02T10:14:33.269Z,956.06
2016-08-02T10:15:33.299Z,956.05
2016-08-02T10:16:33.330Z,956.03
2016-08-02T10:17:33.362Z,956.01
2016-08-02T10:18:33.389Z,956.05
2016-08-02T10:19:33.420Z,956.06
2016-08-02T10:20:33.453Z,956.04
2016-08-02T10:21:33.481Z,955.95
2016-08-02T10:22:33.508Z,955.93
2016-08-02T10:23:33.539Z,955.89
2016-08-02T10:24:33.570Z,955.87
2016-08-02T10:25:33.598Z,955.93
2016-08-02T10:26:33.631Z,955.92
2016-08-02T10:27:33.660Z,955.91
2016-08-02T10:28:33.691Z,955.89
2016-08-02T10:29:33.721Z,955.88
2016-08-02T10:30:33.750Z,955.88
2016-08-02T10:31:33.780Z,955.84
2016-08-02T10:32:33.810Z,955.84
2016-08-02T10:33:33.840Z,955.9
2016-08-02T10:34:33.870Z,955.88
2016-08-02T10:35:33.901Z,955.86
2016-08-02T10:36:33.932Z,955.87
2016-08-02T10:37:33.963Z,955.88
2016-08-02T10:38:33.992Z,955.87
2016-08-02T10:39:34.021Z,955.86
2016-08-02T10:40:34.052Z,955.9
2016-08-02T10:41:34.083Z,955.84
2016-08-02T10:42:34.113Z,955.86
2016-08-02T10:43:34.143Z,955.85
2016-08-02T10:44:34.174Z,955.78
2016-08-02T10:45:34.203Z,955.8
2016-08-02T10:46:34.234Z,955.8
2016-08-02T10:47:34.264Z,955.79
2016-08-02T10:48:34.293Z,955.78
2016-08-02T10:49:34.327Z,955.75
2016-08-02T10:50:34.355Z,955.77
2016-08-02T10:51:34.384Z,955.84
2016-08-02T10:52:34.415Z,955.82
2016-08-02T10:53:34.452Z,955.76
2016-08-02T10:54:34.478Z,955.74
2016-08-02T10:55:34.507Z,955.8
2016-08-02T10:56:34.537Z,955.82
2016-08-02T10:57:34.570Z,955.8
2016-08-02T10:58:34.598Z,955.84
2016-08-02T10:59:34.628Z,955.75
2016-08-02T11:00:34.660Z,955.8
2016-08-02T11:01:34.690Z,955.74
2016-08-02T11:02:34.843Z,955.76
2016-08-02T11:03:34.751Z,955.79
2016-08-02T11:04:34.833Z,955.86
2016-08-02T11:05:34.815Z,955.73
2016-08-02T11:06:34.843Z,955.76
2016-08-02T11:07:34.873Z,955.74
2016-08-02T11:08:35.078Z,955.75
2016-08-02T11:09:34.934Z,955.8
2016-08-02T11:10:34.980Z,955.78
2016-08-02T11:11:34.994Z,955.75
2016-08-02T11:12:35.072Z,955.71
2016-08-02T11:13:35.056Z,955.69
2016-08-02T11:14:35.090Z,955.68
2016-08-02T11:15:35.118Z,955.63
2016-08-02T11:16:35.157Z,955.66
2016-08-02T11:17:35.177Z,955.63
2016-08-02T11:18:35.210Z,955.59
2016-08-02T11:19:35.245Z,955.55
2016-08-02T11:20:35.267Z,955.53
2016-08-02T11:21:35.300Z,955.58
2016-08-02T11:22:35.331Z,955.59
2016-08-02T11:23:35.362Z,955.53
2016-08-02T11:24:35.397Z,955.61
2016-08-02T11:26:35.473Z,955.58
2016-08-02T11:27:35.485Z,955.56
2016-08-02T11:28:35.515Z,955.54
2016-08-02T11:29:35.550Z,955.47
2016-08-02T11:30:35.576Z,955.52
2016-08-02T11:31:35.607Z,955.55
2016-08-02T11:32:35.638Z,955.56
2016-08-02T11:33:35.670Z,955.57
2016-08-02T11:34:35.701Z,955.55
2016-08-02T11:35:35.731Z,955.51
2016-08-02T11:36:35.761Z,955.52
2016-08-02T11:37:35.793Z,955.44
2016-08-02T11:38:35.826Z,955.42
2016-08-02T11:39:35.855Z,955.4
2016-08-02T11:41:35.916Z,955.46
2016-08-02T11:42:35.946Z,955.39
2016-08-02T11:43:36.000Z,955.5
2016-08-02T11:44:36.010Z,955.46
2016-08-02T11:45:36.044Z,955.53
2016-08-02T11:46:36.072Z,955.45
2016-08-02T11:47:36.109Z,955.47
2016-08-02T11:48:36.134Z,955.46
2016-08-02T11:49:36.164Z,955.5
2016-08-02T11:50:36.199Z,955.48
2016-08-02T11:51:36.231Z,955.52
2016-08-02T11:52:36.258Z,955.44
2016-08-02T11:53:36.287Z,955.48
2016-08-02T11:54:36.326Z,955.54
2016-08-02T11:56:36.380Z,955.46
2016-08-02T11:57:36.411Z,955.42
2016-08-02T11:58:36.442Z,955.57
2016-08-02T11:59:36.506Z,955.51
2016-08-02T12:00:36.503Z,955.5
2016-08-02T12:01:36.536Z,955.5
2016-08-02T12:02:36.565Z,955.49
2016-08-02T12:03:36.596Z,955.51
2016-08-02T12:04:36.628Z,955.52
2016-08-02T12:05:36.658Z,955.52
2016-08-02T12:06:36.689Z,955.53
2016-08-02T12:07:36.722Z,955.52
2016-08-02T12:08:36.749Z,955.49
2016-08-02T12:09:36.780Z,955.47
2016-08-02T12:10:36.811Z,955.51
2016-08-02T12:11:36.842Z,955.52
2016-08-02T12:12:36.873Z,955.49
2016-08-02T12:13:36.902Z,955.5
2016-08-02T12:14:36.934Z,955.46
2016-08-02T12:15:36.963Z,955.42
2016-08-02T12:16:37.141Z,955.33
2016-08-02T12:17:37.071Z,955.4
2016-08-02T12:18:37.062Z,955.38
2016-08-02T12:19:37.088Z,955.4
2016-08-02T12:20:37.155Z,955.35
2016-08-02T12:21:37.284Z,955.33
2016-08-02T12:22:37.179Z,955.34
2016-08-02T12:23:37.214Z,955.28
2016-08-02T12:24:37.241Z,955.34
2016-08-02T12:25:37.275Z,955.37
2016-08-02T12:26:37.301Z,955.36
2016-08-02T12:27:37.333Z,955.34
2016-08-02T12:28:37.364Z,955.3
2016-08-02T12:29:37.397Z,955.32
2016-08-02T12:30:37.424Z,955.27
2016-08-02T12:31:37.456Z,955.31
2016-08-02T12:32:37.490Z,955.32
2016-08-02T12:33:37.528Z,955.29
2016-08-02T12:34:37.547Z,955.23
2016-08-02T12:35:37.579Z,955.25
2016-08-02T12:36:37.611Z,955.26
2016-08-02T12:37:37.642Z,955.23
2016-08-02T12:38:37.672Z,955.23
2016-08-02T12:39:37.703Z,955.2
2016-08-02T12:40:37.734Z,955.18
2016-08-02T12:41:37.764Z,955.22
2016-08-02T12:42:37.874Z,955.25
2016-08-02T12:43:37.830Z,955.24
2016-08-02T12:44:37.858Z,955.26